Time;durP1;ratioP1;P1;durP2;ratioP2;P2;SDS_P1;SDS_P2;PMS_P1;PMS_P2;Temp;Humidity;BMP_temperature;BMP_pressure;BME280_temperature;BME280_humidity;BME280_pressure;Samples;Min_cycle;Max_cycle;Signal;HPM_P1;HPM_P2
2021/07/20 00:01:09;;;;;;;0.77;0.20;;;26.10;47.50;;;;;;4964622;28;20028;-84
2021/07/20 00:03:35;;;;;;;0.70;0.10;;;26.00;47.50;;;;;;4917844;29;20395;-84
2021/07/20 00:06:01;;;;;;;2.15;0.38;;;26.00;47.60;;;;;;4916594;29;20036;-84
2021/07/20 00:08:27;;;;;;;0.35;0.00;;;25.90;47.60;;;;;;4917044;29;20047;-82
2021/07/20 00:10:59;;;;;;;0.65;0.52;;;25.90;47.80;;;;;;4917743;29;20040;-84
2021/07/20 00:13:25;;;;;;;0.30;0.17;;;25.90;47.90;;;;;;4917736;29;20025;-83
2021/07/20 00:15:54;;;;;;;0.30;0.05;;;25.80;47.90;;;;;;4917015;28;20495;-84
2021/07/20 00:18:33;;;;;;;0.50;0.10;;;25.80;47.90;;;;;;4916398;29;20044;-84
2021/07/20 00:20:59;;;;;;;3.03;0.22;;;25.80;48.00;;;;;;4931806;29;20535;-85
2021/07/20 00:23:26;;;;;;;1.23;0.22;;;25.70;48.00;;;;;;4918422;28;20113;-82
2021/07/20 00:25:52;;;;;;;0.32;0.00;;;25.70;48.10;;;;;;4915413;29;20059;-83
2021/07/20 00:28:19;;;;;;;0.82;0.25;;;25.70;48.10;;;;;;4918256;29;20036;-85
2021/07/20 00:30:46;;;;;;;3.03;0.28;;;25.70;48.30;;;;;;4916884;28;20032;-84
2021/07/20 00:33:12;;;;;;;0.60;0.00;;;25.60;48.30;;;;;;4932148;29;20035;-85
2021/07/20 00:35:38;;;;;;;0.30;0.10;;;25.60;48.50;;;;;;4917227;29;20047;-84
2021/07/20 00:38:04;;;;;;;0.22;0.10;;;25.60;48.60;;;;;;4916743;29;20036;-83
2021/07/20 00:40:33;;;;;;;0.10;0.00;;;25.50;48.50;;;;;;4917099;29;20040;-83
2021/07/20 00:43:00;;;;;;;10.38;0.25;;;25.50;48.60;;;;;;4916931;29;20047;-83
2021/07/20 00:45:26;;;;;;;0.70;0.10;;;25.40;48.70;;;;;;4915367;28;20506;-83
2021/07/20 00:47:52;;;;;;;0.77;0.17;;;25.40;48.70;;;;;;4916955;29;20043;-83
2021/07/20 00:50:29;;;;;;;0.35;0.00;;;25.40;48.80;;;;;;4917013;29;20040;-83
2021/07/20 00:52:55;;;;;;;2.15;0.38;;;25.30;48.90;;;;;;4915435;29;20028;-83
2021/07/20 00:55:22;;;;;;;0.32;0.17;;;25.30;48.90;;;;;;4932037;29;20059;-83
2021/07/20 00:57:48;;;;;;;0.32;0.32;;;25.30;49.00;;;;;;4931201;29;20032;-84
2021/07/20 01:00:16;;;;;;;0.40;0.10;;;25.30;49.10;;;;;;4916380;28;20044;-83
2021/07/20 01:02:43;;;;;;;1.52;0.28;;;25.20;49.20;;;;;;4913062;29;20376;-83
2021/07/20 01:05:14;;;;;;;0.20;0.10;;;25.10;49.20;;;;;;4916804;29;20039;-83
2021/07/20 01:07:42;;;;;;;;;;;25.10;49.40;;;;;;4932132;29;20421;-82
2021/07/20 01:10:09;;;;;;;0.65;0.20;;;25.10;49.40;;;;;;4947645;29;19911;-84
2021/07/20 01:12:38;;;;;;;0.13;0.10;;;25.00;49.30;;;;;;4930504;29;20048;-84
2021/07/20 01:15:06;;;;;;;0.68;0.10;;;25.00;49.40;;;;;;4914997;28;20040;-84
2021/07/20 01:17:33;;;;;;;0.32;0.10;;;25.00;49.50;;;;;;4927989;29;20024;-83
2021/07/20 01:20:00;;;;;;;0.00;0.00;;;24.90;49.60;;;;;;4946725;29;20395;-84
2021/07/20 01:22:30;;;;;;;4.38;0.15;;;24.90;49.60;;;;;;4916977;29;20032;-85
2021/07/20 01:24:56;;;;;;;0.32;0.20;;;24.90;49.80;;;;;;4917129;28;20407;-84
2021/07/20 01:27:22;;;;;;;0.25;0.15;;;24.80;49.80;;;;;;4916006;29;20051;-83
2021/07/20 01:29:49;;;;;;;7.47;0.25;;;24.80;49.90;;;;;;4929336;29;20029;-84
2021/07/20 01:32:15;;;;;;;0.10;0.00;;;24.80;50.00;;;;;;4930786;28;20039;-84
2021/07/20 01:34:41;;;;;;;0.00;0.00;;;24.70;50.10;;;;;;4928757;29;20052;-84
2021/07/20 01:37:07;;;;;;;0.88;0.10;;;24.70;50.20;;;;;;4947217;29;20032;-83
2021/07/20 01:39:33;;;;;;;0.40;0.22;;;24.60;50.20;;;;;;4931469;28;20044;-82
2021/07/20 01:42:00;;;;;;;0.65;0.00;;;24.60;50.30;;;;;;4914434;29;20039;-83
2021/07/20 01:44:27;;;;;;;0.57;0.22;;;24.60;50.40;;;;;;4930624;29;20028;-83
2021/07/20 01:46:54;;;;;;;1.00;0.22;;;24.50;50.40;;;;;;4913899;28;20049;-84
2021/07/20 01:49:20;;;;;;;0.00;0.00;;;24.50;50.50;;;;;;4962950;28;20040;-83
2021/07/20 01:51:46;;;;;;;0.90;0.35;;;24.50;50.50;;;;;;4962220;28;20039;-84
2021/07/20 01:54:12;;;;;;;0.28;0.00;;;24.50;50.60;;;;;;4945967;29;20059;-83
2021/07/20 01:56:38;;;;;;;0.32;0.00;;;24.50;50.70;;;;;;4927551;29;20024;-84
2021/07/20 01:59:04;;;;;;;1.25;0.43;;;24.40;50.70;;;;;;4915700;29;20035;-82
2021/07/20 02:01:39;;;;;;;4.63;0.20;;;24.40;50.80;;;;;;4912085;28;20041;-83
2021/07/20 02:09:27;;;;;;;1.90;0.57;;;24.30;50.90;;;;;;4945550;28;20415;-82
2021/07/20 02:11:54;;;;;;;0.30;0.13;;;24.30;51.00;;;;;;4967537;28;20036;-84
2021/07/20 02:14:23;;;;;;;0.75;0.10;;;24.30;51.10;;;;;;4961353;28;20499;-85
2021/07/20 02:16:49;;;;;;;0.40;0.15;;;24.30;51.20;;;;;;4944093;28;20044;-84
2021/07/20 02:19:18;;;;;;;0.20;0.03;;;24.20;51.20;;;;;;4929210;29;20546;-84
2021/07/20 02:21:47;;;;;;;0.32;0.17;;;24.20;51.30;;;;;;4944388;28;20032;-84
2021/07/20 02:24:15;;;;;;;0.10;0.00;;;24.10;51.40;;;;;;4944516;28;20043;-83
2021/07/20 02:26:41;;;;;;;2.17;0.95;;;24.10;51.60;;;;;;4960371;28;20032;-83
2021/07/20 02:29:08;;;;;;;0.10;0.10;;;24.00;51.70;;;;;;4914764;28;20125;-83
2021/07/20 02:31:34;;;;;;;0.70;0.25;;;24.00;51.70;;;;;;4944301;28;20376;-85
2021/07/20 02:34:02;;;;;;;0.63;0.20;;;23.90;51.80;;;;;;4929654;29;20036;-83
2021/07/20 02:36:29;;;;;;;0.60;0.10;;;24.00;51.90;;;;;;4944508;28;20036;-82
2021/07/20 02:38:55;;;;;;;0.22;0.13;;;23.90;51.90;;;;;;4945592;29;20495;-83
2021/07/20 02:41:21;;;;;;;0.15;0.05;;;23.90;52.00;;;;;;4930247;29;20040;-84
2021/07/20 02:43:47;;;;;;;0.00;0.00;;;23.90;52.10;;;;;;4913250;29;20024;-84
2021/07/20 02:46:16;;;;;;;1.33;0.45;;;23.90;52.10;;;;;;4945866;28;20399;-82
2021/07/20 02:48:42;;;;;;;0.10;0.08;;;23.80;52.20;;;;;;4914250;29;20391;-85
2021/07/20 02:51:09;;;;;;;0.52;0.10;;;23.80;52.20;;;;;;4914267;29;20028;-83
2021/07/20 02:53:36;;;;;;;0.20;0.10;;;23.80;52.30;;;;;;4926645;29;20484;-84
2021/07/20 02:56:04;;;;;;;0.10;0.00;;;23.70;52.30;;;;;;4946323;28;20047;-82
2021/07/20 02:58:30;;;;;;;0.20;0.00;;;23.70;52.50;;;;;;4946605;28;20047;-83
2021/07/20 03:00:56;;;;;;;0.30;0.00;;;23.70;52.50;;;;;;4914893;28;20427;-84
2021/07/20 03:03:22;;;;;;;0.50;0.15;;;23.60;52.60;;;;;;4932422;29;20043;-81
2021/07/20 03:05:48;;;;;;;0.00;0.00;;;23.60;52.70;;;;;;4916206;29;20388;-84
2021/07/20 03:08:15;;;;;;;0.85;0.00;;;23.60;52.70;;;;;;4917377;29;20048;-83
2021/07/20 03:10:41;;;;;;;0.32;0.00;;;23.60;52.80;;;;;;4947112;29;20041;-83
2021/07/20 03:13:08;;;;;;;11.00;0.40;;;23.60;52.80;;;;;;4949772;29;20032;-83
2021/07/20 03:15:36;;;;;;;1.25;0.10;;;23.60;52.80;;;;;;4917379;28;20051;-83
2021/07/20 03:18:03;;;;;;;0.40;0.20;;;23.60;52.90;;;;;;4917590;29;20036;-82
2021/07/20 03:20:29;;;;;;;1.17;0.38;;;23.60;52.90;;;;;;4918609;29;20028;-82
2021/07/20 03:22:56;;;;;;;0.08;0.00;;;23.60;52.90;;;;;;4916973;29;20024;-83
2021/07/20 03:25:22;;;;;;;0.73;0.17;;;23.60;53.00;;;;;;4949459;29;20035;-83
2021/07/20 03:27:48;;;;;;;0.45;0.05;;;23.50;53.00;;;;;;4917367;29;20476;-83
2021/07/20 03:30:15;;;;;;;0.65;0.32;;;23.50;53.10;;;;;;4916958;28;20040;-83
2021/07/20 03:32:47;;;;;;;0.20;0.10;;;23.50;53.20;;;;;;4914755;29;20044;-83
2021/07/20 03:35:14;;;;;;;0.70;0.08;;;23.40;53.30;;;;;;4917684;29;20415;-84
2021/07/20 03:37:41;;;;;;;0.57;0.20;;;23.40;53.40;;;;;;4917966;29;20380;-83
2021/07/20 03:40:07;;;;;;;0.73;0.20;;;23.30;53.40;;;;;;4965429;28;20040;-83
2021/07/20 03:42:33;;;;;;;0.25;0.03;;;23.30;53.60;;;;;;4948682;29;20032;-83
2021/07/20 03:44:59;;;;;;;2.33;0.10;;;23.30;53.60;;;;;;4916932;29;20047;-83
2021/07/20 03:47:25;;;;;;;0.13;0.03;;;23.20;53.70;;;;;;4932496;28;20035;-83
2021/07/20 03:49:52;;;;;;;0.28;0.00;;;23.20;53.70;;;;;;4931855;29;20036;-83
2021/07/20 03:52:18;;;;;;;0.68;0.13;;;23.20;53.80;;;;;;4948939;29;20036;-83
2021/07/20 03:54:44;;;;;;;0.85;0.50;;;23.10;53.90;;;;;;4932643;29;20044;-84
2021/07/20 03:57:13;;;;;;;1.10;0.17;;;23.10;54.00;;;;;;4932542;29;20423;-84
2021/07/20 03:59:39;;;;;;;0.43;0.15;;;23.10;54.10;;;;;;4929373;29;20045;-83
2021/07/20 04:02:06;;;;;;;0.50;0.15;;;23.00;54.10;;;;;;4932196;28;20032;-83
2021/07/20 04:04:40;;;;;;;0.60;0.32;;;23.00;54.20;;;;;;4913886;29;20032;-83
2021/07/20 04:07:14;;;;;;;4.97;0.30;;;23.00;54.20;;;;;;4964029;28;20048;-83
2021/07/20 04:09:40;;;;;;;0.65;0.28;;;23.00;54.20;;;;;;4963646;28;20055;-84
2021/07/20 04:12:07;;;;;;;0.65;0.20;;;23.00;54.30;;;;;;4964376;28;20032;-83
2021/07/20 04:14:33;;;;;;;2.75;0.13;;;22.90;54.40;;;;;;4947731;28;20040;-83
2021/07/20 04:17:00;;;;;;;0.05;0.00;;;22.90;54.50;;;;;;4932166;28;20039;-83
2021/07/20 04:19:26;;;;;;;0.38;0.28;;;22.80;54.60;;;;;;4964328;28;20051;-82
2021/07/20 04:21:52;;;;;;;2.10;0.20;;;22.80;54.80;;;;;;4964061;28;20043;-84
2021/07/20 04:24:18;;;;;;;2.38;0.40;;;22.70;54.80;;;;;;4917645;29;20043;-84
2021/07/20 04:26:45;;;;;;;0.05;0.00;;;22.70;54.90;;;;;;4930225;29;20403;-84
2021/07/20 04:29:11;;;;;;;0.22;0.03;;;22.60;55.00;;;;;;4916751;29;20046;-83
2021/07/20 04:31:38;;;;;;;0.40;0.10;;;22.60;55.10;;;;;;4917163;28;20043;-83
2021/07/20 04:34:04;;;;;;;0.55;0.00;;;22.60;55.20;;;;;;4917430;29;20039;-84
2021/07/20 04:36:30;;;;;;;0.22;0.20;;;22.50;55.30;;;;;;4916175;29;20046;-83
2021/07/20 04:38:56;;;;;;;0.10;0.00;;;22.50;55.40;;;;;;4915603;29;20419;-83
2021/07/20 04:41:23;;;;;;;1.30;0.47;;;22.50;55.50;;;;;;4916084;29;20039;-82
2021/07/20 04:43:49;;;;;;;1.75;0.47;;;22.40;55.50;;;;;;4930592;29;20365;-82
2021/07/20 04:46:15;;;;;;;0.43;0.20;;;22.40;55.70;;;;;;4947827;28;20032;-83
2021/07/20 04:48:41;;;;;;;0.45;0.10;;;22.30;55.70;;;;;;4915517;29;20044;-83
2021/07/20 04:51:08;;;;;;;0.10;0.00;;;22.30;55.80;;;;;;4931585;29;20047;-83
2021/07/20 04:53:34;;;;;;;1.00;0.08;;;22.40;55.90;;;;;;4916975;29;20020;-83
2021/07/20 04:56:00;;;;;;;0.88;0.28;;;22.30;55.80;;;;;;4915663;29;20391;-82
2021/07/20 04:58:26;;;;;;;0.50;0.17;;;22.30;55.80;;;;;;4947822;29;20487;-84
2021/07/20 05:00:53;;;;;;;0.20;0.00;;;22.30;55.80;;;;;;4930883;28;20033;-83
2021/07/20 05:03:20;;;;;;;0.88;0.15;;;22.40;55.90;;;;;;4915339;29;20399;-83
2021/07/20 05:05:46;;;;;;;0.17;0.00;;;22.40;56.00;;;;;;4913441;29;20029;-84
2021/07/20 05:08:14;;;;;;;0.15;0.03;;;22.40;56.00;;;;;;4916776;29;20063;-84
2021/07/20 05:10:40;;;;;;;3.17;0.55;;;22.40;56.00;;;;;;4913387;29;20474;-83
2021/07/20 05:13:08;;;;;;;0.47;0.28;;;22.40;56.10;;;;;;4963265;28;20048;-83
2021/07/20 05:15:34;;;;;;;0.10;0.00;;;22.40;56.10;;;;;;4961643;28;20051;-83
2021/07/20 05:18:01;;;;;;;0.85;0.43;;;22.40;56.10;;;;;;4946904;28;20048;-84
2021/07/20 05:20:28;;;;;;;1.33;0.30;;;22.40;56.20;;;;;;4931061;29;20498;-83
2021/07/20 05:22:54;;;;;;;2.72;0.30;;;22.50;56.10;;;;;;4916535;29;20408;-83
2021/07/20 05:25:21;;;;;;;1.15;0.20;;;22.60;56.00;;;;;;4946860;28;20028;-84
2021/07/20 05:27:51;;;;;;;0.20;0.10;;;22.80;55.90;;;;;;4915082;29;20028;-84
2021/07/20 05:30:17;;;;;;;0.65;0.10;;;23.00;55.70;;;;;;4915839;28;20028;-83
2021/07/20 05:32:45;;;;;;;0.15;0.10;;;23.20;55.50;;;;;;4928068;29;20486;-84
2021/07/20 05:35:15;;;;;;;0.30;0.13;;;23.30;55.30;;;;;;4930883;29;20040;-84
2021/07/20 05:37:42;;;;;;;0.22;0.17;;;23.50;55.30;;;;;;4916394;29;20028;-84
2021/07/20 05:40:12;;;;;;;0.30;0.10;;;23.60;55.10;;;;;;4947597;28;20040;-84
2021/07/20 05:42:38;;;;;;;0.43;0.10;;;23.70;55.00;;;;;;4916684;29;20399;-84
2021/07/20 05:45:06;;;;;;;1.25;0.45;;;23.80;54.80;;;;;;4930292;28;20044;-84
2021/07/20 05:47:35;;;;;;;0.00;0.00;;;24.00;54.70;;;;;;4915762;29;20020;-83
2021/07/20 05:50:04;;;;;;;2.38;0.10;;;24.10;54.60;;;;;;4930707;29;20047;-83
2021/07/20 05:52:30;;;;;;;0.60;0.17;;;24.20;54.50;;;;;;4958390;28;20094;-84
2021/07/20 05:54:56;;;;;;;0.30;0.22;;;24.30;54.50;;;;;;4914714;29;20048;-83
2021/07/20 05:57:25;;;;;;;0.63;0.15;;;24.30;54.50;;;;;;4930350;29;20028;-83
2021/07/20 05:59:51;;;;;;;0.28;0.10;;;24.40;54.60;;;;;;4913357;29;20039;-84
2021/07/20 06:02:17;;;;;;;0.10;0.03;;;24.40;54.60;;;;;;4929697;28;20059;-84
2021/07/20 06:04:44;;;;;;;1.23;0.52;;;24.40;54.50;;;;;;4928460;29;20036;-83
2021/07/20 06:07:10;;;;;;;0.88;0.32;;;24.50;54.40;;;;;;4916088;29;20044;-83
2021/07/20 06:09:36;;;;;;;0.60;0.17;;;24.60;54.40;;;;;;4930384;29;20039;-85
2021/07/20 06:12:05;;;;;;;0.85;0.30;;;24.60;54.40;;;;;;4914695;29;20032;-84
2021/07/20 06:14:31;;;;;;;0.17;0.00;;;24.60;54.40;;;;;;4930076;29;20028;-84
2021/07/20 06:16:57;;;;;;;0.40;0.10;;;24.70;54.20;;;;;;4913506;28;20421;-84
2021/07/20 06:19:26;;;;;;;0.30;0.05;;;24.90;54.10;;;;;;4962889;28;20403;-83
2021/07/20 06:21:52;;;;;;;1.92;0.30;;;25.10;53.90;;;;;;4916323;28;20427;-83
2021/07/20 06:24:18;;;;;;;0.93;0.30;;;25.20;53.70;;;;;;4930417;29;20024;-84
2021/07/20 06:26:44;;;;;;;0.25;0.08;;;25.30;53.60;;;;;;4915461;29;20472;-83
2021/07/20 06:29:10;;;;;;;0.20;0.00;;;25.40;53.50;;;;;;4930328;29;20036;-83
2021/07/20 06:31:41;;;;;;;1.67;0.30;;;25.50;53.50;;;;;;4926852;28;20029;-83
2021/07/20 06:34:07;;;;;;;1.20;0.43;;;25.50;53.30;;;;;;4962572;28;20036;-83
2021/07/20 06:36:35;;;;;;;0.05;0.00;;;25.60;53.40;;;;;;4963424;28;20052;-82
2021/07/20 06:39:02;;;;;;;0.73;0.00;;;25.70;53.20;;;;;;4965670;28;20039;-83
2021/07/20 06:41:28;;;;;;;0.88;0.45;;;25.70;53.10;;;;;;4934477;29;20036;-83
2021/07/20 06:43:54;;;;;;;0.20;0.13;;;25.70;53.20;;;;;;4933256;29;20403;-80
2021/07/20 06:46:22;;;;;;;1.55;0.63;;;25.70;53.10;;;;;;4965685;28;20024;-83
2021/07/20 06:48:48;;;;;;;0.50;0.20;;;25.80;53.10;;;;;;4949503;29;20039;-83
2021/07/20 06:51:14;;;;;;;0.75;0.25;;;25.90;53.00;;;;;;4933744;29;20032;-83
2021/07/20 06:53:40;;;;;;;3.40;0.30;;;26.00;52.90;;;;;;4915204;29;20036;-83
2021/07/20 06:56:09;;;;;;;0.77;0.20;;;26.10;52.90;;;;;;4918983;29;20039;-83
2021/07/20 06:58:35;;;;;;;0.52;0.20;;;26.20;52.70;;;;;;4914974;29;20494;-82
2021/07/20 07:01:02;;;;;;;0.22;0.10;;;26.30;52.60;;;;;;4949182;28;20040;-83
2021/07/20 07:04:00;;;;;;;0.30;0.10;;;26.40;52.50;;;;;;4919015;29;20028;-84
2021/07/20 07:06:26;;;;;;;0.10;0.10;;;26.50;52.30;;;;;;4918882;29;20032;-84
2021/07/20 07:08:54;;;;;;;0.30;0.17;;;26.60;52.10;;;;;;4916498;29;20051;-84
2021/07/20 07:11:20;;;;;;;0.85;0.22;;;26.70;52.10;;;;;;4917674;29;20024;-83
2021/07/20 07:13:46;;;;;;;0.10;0.00;;;26.70;52.10;;;;;;4915715;29;20033;-84
2021/07/20 07:16:12;;;;;;;0.28;0.25;;;26.80;52.10;;;;;;4949219;28;20044;-84
2021/07/20 07:18:38;;;;;;;0.70;0.38;;;26.80;52.10;;;;;;4933333;29;20040;-83
2021/07/20 07:21:05;;;;;;;0.20;0.00;;;26.80;52.00;;;;;;4933265;29;20036;-84
2021/07/20 07:23:31;;;;;;;0.88;0.25;;;26.80;52.00;;;;;;4914434;29;20021;-84
2021/07/20 07:25:58;;;;;;;0.20;0.10;;;26.80;51.90;;;;;;4917925;29;20044;-83
2021/07/20 07:28:24;;;;;;;0.63;0.30;;;26.90;51.90;;;;;;4965225;28;20048;-84
2021/07/20 07:30:51;;;;;;;1.92;0.17;;;27.00;51.80;;;;;;4964769;28;20036;-85
2021/07/20 07:33:17;;;;;;;0.57;0.22;;;27.10;51.70;;;;;;4964797;28;20040;-84
2021/07/20 07:35:44;;;;;;;0.30;0.15;;;27.10;51.60;;;;;;4948767;29;20048;-82
2021/07/20 07:38:11;;;;;;;0.30;0.10;;;27.10;51.60;;;;;;4918060;29;20059;-84
2021/07/20 07:40:37;;;;;;;0.20;0.15;;;27.20;51.60;;;;;;4930341;29;20033;-84
2021/07/20 07:43:03;;;;;;;0.50;0.13;;;27.30;51.40;;;;;;4964899;28;20024;-84
2021/07/20 07:45:29;;;;;;;0.55;0.43;;;27.40;51.20;;;;;;4948267;28;20032;-84
2021/07/20 07:47:55;;;;;;;0.00;0.00;;;27.60;51.10;;;;;;4917505;29;20033;-84
2021/07/20 07:50:22;;;;;;;0.17;0.00;;;27.70;51.00;;;;;;4917066;29;20032;-84
2021/07/20 07:52:48;;;;;;;1.65;0.32;;;27.80;50.80;;;;;;4931459;29;20396;-84
2021/07/20 07:55:14;;;;;;;0.20;0.10;;;28.00;50.60;;;;;;4948780;29;20039;-85
2021/07/20 07:57:40;;;;;;;0.43;0.10;;;28.20;50.40;;;;;;4916517;29;20036;-84
2021/07/20 08:00:07;;;;;;;0.65;0.40;;;28.20;50.20;;;;;;4916385;28;20040;-85
2021/07/20 08:02:35;;;;;;;1.20;0.17;;;28.30;50.00;;;;;;4917926;29;20024;-85
2021/07/20 08:05:01;;;;;;;0.77;0.15;;;28.40;49.90;;;;;;4932285;29;20059;-84
2021/07/20 08:07:28;;;;;;;0.45;0.22;;;28.60;49.80;;;;;;4948650;29;20052;-85
2021/07/20 08:09:54;;;;;;;0.20;0.10;;;28.70;49.50;;;;;;4916576;29;20036;-84
2021/07/20 08:12:20;;;;;;;0.85;0.20;;;28.90;49.40;;;;;;4932260;29;20032;-84
2021/07/20 08:14:46;;;;;;;0.10;0.00;;;29.00;49.10;;;;;;4914545;29;20039;-84
2021/07/20 08:17:12;;;;;;;0.77;0.28;;;29.10;48.90;;;;;;4931635;28;20036;-84
2021/07/20 08:19:39;;;;;;;0.55;0.20;;;29.20;48.70;;;;;;4948306;29;20043;-83
2021/07/20 08:22:09;;;;;;;0.10;0.00;;;29.20;49.10;;;;;;4964689;28;20028;-83
2021/07/20 08:24:36;;;;;;;;;;;29.20;48.50;;;;;;4947448;29;20043;-86
2021/07/20 08:27:12;;;;;;;0.00;0.00;;;29.20;48.50;;;;;;4931908;29;20377;-83
2021/07/20 08:29:38;;;;;;;1.38;0.43;;;29.20;48.30;;;;;;4913284;29;20029;-83
2021/07/20 08:32:10;;;;;;;0.38;0.20;;;29.20;48.30;;;;;;4915886;28;20458;-85
2021/07/20 08:34:40;;;;;;;0.80;0.30;;;29.20;48.30;;;;;;4964354;28;20028;-83
2021/07/20 08:37:06;;;;;;;4.97;0.10;;;29.30;48.20;;;;;;4964043;28;20036;-85
2021/07/20 08:39:32;;;;;;;2.60;0.43;;;29.40;48.10;;;;;;4963808;28;20395;-85
2021/07/20 08:42:30;;;;;;;2.15;0.60;;;29.60;47.90;;;;;;4963420;28;20040;-84
2021/07/20 08:45:11;;;;;;;0.32;0.17;;;29.80;47.60;;;;;;4917201;29;20036;-84
2021/07/20 08:47:56;;;;;;;0.17;0.10;;;29.80;47.30;;;;;;4927954;29;20029;-84
2021/07/20 08:50:31;;;;;;;0.85;0.40;;;29.80;47.20;;;;;;4917106;29;20027;-85
2021/07/20 08:53:33;;;;;;;0.30;0.10;;;29.80;47.20;;;;;;4915696;29;20032;-84
2021/07/20 08:56:00;;;;;;;0.95;0.20;;;29.80;47.10;;;;;;4916310;29;20051;-85
2021/07/20 08:58:29;;;;;;;0.00;0.00;;;29.80;47.00;;;;;;4948410;28;20043;-85
2021/07/20 09:01:16;;;;;;;0.80;0.30;;;29.80;47.00;;;;;;4961751;28;20406;-84
2021/07/20 09:04:06;;;;;;;0.55;0.25;;;29.90;46.80;;;;;;4947277;29;20028;-84
2021/07/20 09:06:45;;;;;;;0.10;0.00;;;29.90;46.70;;;;;;4915827;29;20036;-85
2021/07/20 09:09:19;;;;;;;0.60;0.32;;;30.00;46.70;;;;;;4916200;29;20487;-84
2021/07/20 09:12:03;;;;;;;0.10;0.00;;;30.20;46.60;;;;;;4929282;29;20037;-82
2021/07/20 09:14:37;;;;;;;1.67;0.17;;;30.20;46.40;;;;;;4915648;29;20405;-83
2021/07/20 09:17:29;;;;;;;0.93;0.30;;;30.20;46.50;;;;;;4900156;29;20048;-85
2021/07/20 09:19:58;;;;;;;1.23;0.20;;;30.30;46.50;;;;;;4928054;29;20822;-84
2021/07/20 09:22:34;;;;;;;0.08;0.00;;;30.40;46.30;;;;;;4947886;28;20039;-84
2021/07/20 09:25:03;;;;;;;0.47;0.10;;;30.40;46.10;;;;;;4914908;29;20036;-84
2021/07/20 09:27:35;;;;;;;0.10;0.05;;;30.50;46.00;;;;;;4915375;29;20483;-84
2021/07/20 09:30:06;;;;;;;0.88;0.52;;;30.60;46.00;;;;;;4930942;29;20043;-83
2021/07/20 09:33:05;;;;;;;0.55;0.30;;;30.70;45.90;;;;;;5128670;27;20332;-84
2021/07/20 09:35:49;;;;;;;0.00;0.00;;;30.80;45.80;;;;;;5107394;28;20044;-85
2021/07/20 09:38:50;;;;;;;0.17;0.03;;;30.90;45.60;;;;;;5077991;28;20031;-85
2021/07/20 09:41:20;;;;;;;1.13;0.20;;;30.90;45.60;;;;;;5077556;28;20024;-84
2021/07/20 09:44:17;;;;;;;0.30;0.10;;;30.80;45.60;;;;;;5093242;28;20035;-85
2021/07/20 09:46:58;;;;;;;0.38;0.22;;;30.80;45.60;;;;;;5051662;28;20076;-84
2021/07/20 09:49:45;;;;;;;0.40;0.13;;;30.90;45.50;;;;;;5035225;28;20398;-86
2021/07/20 09:52:14;;;;;;;1.13;0.55;;;31.10;45.30;;;;;;5030528;28;20053;-85
2021/07/20 09:54:54;;;;;;;1.38;0.45;;;31.20;45.20;;;;;;5046440;28;20037;-86
2021/07/20 09:57:36;;;;;;;0.22;0.10;;;31.20;45.00;;;;;;5047719;28;20045;-85
2021/07/20 10:00:21;;;;;;;0.08;0.00;;;31.30;45.00;;;;;;5033489;28;20030;-85
2021/07/20 10:03:06;;;;;;;0.22;0.10;;;31.40;44.80;;;;;;5017525;28;20136;-85
2021/07/20 10:05:49;;;;;;;0.15;0.10;;;31.50;44.40;;;;;;5048941;28;20033;-86
2021/07/20 10:08:26;;;;;;;0.47;0.30;;;31.30;44.30;;;;;;5015110;28;20112;-84
2021/07/20 10:11:14;;;;;;;0.25;0.05;;;31.20;44.40;;;;;;5013919;28;20053;-86
2021/07/20 10:13:48;;;;;;;0.35;0.15;;;31.20;44.20;;;;;;5062648;28;20032;-86
2021/07/20 10:16:26;;;;;;;0.43;0.20;;;31.30;44.00;;;;;;5030746;28;20378;-86
2021/07/20 10:19:04;;;;;;;0.20;0.10;;;31.50;43.80;;;;;;5028691;28;20081;-86
2021/07/20 10:21:30;;;;;;;0.00;0.00;;;31.50;43.60;;;;;;5045485;28;20049;-86
2021/07/20 10:24:06;;;;;;;0.55;0.15;;;31.50;43.40;;;;;;5048416;28;20040;-85
2021/07/20 10:26:48;;;;;;;2.28;0.38;;;31.50;43.30;;;;;;5054652;28;20032;-85
2021/07/20 10:29:19;;;;;;;0.10;0.00;;;31.40;43.10;;;;;;5036390;28;20032;-86
2021/07/20 10:31:49;;;;;;;0.10;0.00;;;31.50;43.20;;;;;;5035573;28;20057;-85
2021/07/20 10:34:17;;;;;;;0.55;0.17;;;31.50;43.00;;;;;;5053306;28;20465;-85
2021/07/20 10:36:57;;;;;;;0.55;0.03;;;31.50;43.00;;;;;;5070684;28;20048;-85
2021/07/20 10:39:25;;;;;;;0.45;0.10;;;31.50;42.70;;;;;;5037735;28;20500;-86
2021/07/20 10:42:18;;;;;;;1.08;0.25;;;31.60;42.70;;;;;;5037009;28;20500;-87
2021/07/20 10:44:53;;;;;;;0.28;0.00;;;31.80;42.50;;;;;;5039939;28;20044;-86
2021/07/20 10:47:20;;;;;;;0.52;0.20;;;32.00;42.00;;;;;;5052753;28;20036;-86
2021/07/20 10:50:04;;;;;;;0.45;0.10;;;31.90;41.80;;;;;;5052349;28;20052;-85
2021/07/20 10:52:47;;;;;;;0.57;0.30;;;31.80;41.80;;;;;;5059349;28;20037;-85
2021/07/20 10:55:25;;;;;;;1.25;0.55;;;31.90;41.80;;;;;;5041413;28;20037;-85
2021/07/20 10:58:18;;;;;;;3.03;0.10;;;32.00;41.70;;;;;;5023433;28;20029;-83
2021/07/20 11:00:57;;;;;;;0.40;0.20;;;32.10;41.50;;;;;;5039313;28;20033;-85
2021/07/20 11:03:48;;;;;;;1.80;0.22;;;32.20;41.40;;;;;;5022473;28;20032;-84
2021/07/20 11:06:16;;;;;;;0.60;0.30;;;32.30;41.30;;;;;;4977264;28;20054;-85
2021/07/20 11:08:44;;;;;;;0.10;0.00;;;32.40;41.10;;;;;;4959796;28;20042;-85
2021/07/20 11:11:18;;;;;;;2.05;0.10;;;32.40;41.00;;;;;;4973091;28;20058;-85
2021/07/20 11:13:46;;;;;;;0.45;0.17;;;32.40;41.00;;;;;;4957301;28;20035;-82
2021/07/20 11:16:15;;;;;;;1.73;0.40;;;32.40;40.80;;;;;;4979503;28;20054;-85
2021/07/20 11:18:42;;;;;;;0.30;0.13;;;32.40;40.80;;;;;;4956323;28;20047;-84
2021/07/20 11:21:12;;;;;;;0.73;0.20;;;32.50;40.80;;;;;;4987498;28;20031;-85
2021/07/20 11:23:40;;;;;;;0.00;0.00;;;32.60;40.70;;;;;;4974328;28;20046;-85
2021/07/20 11:26:06;;;;;;;2.13;0.47;;;32.70;40.60;;;;;;4972455;28;20027;-84
2021/07/20 11:28:32;;;;;;;0.28;0.13;;;32.60;40.50;;;;;;4958305;28;20039;-85
2021/07/20 11:30:59;;;;;;;0.45;0.15;;;32.60;40.60;;;;;;4993868;28;20051;-87
2021/07/20 11:33:49;;;;;;;0.00;0.00;;;32.60;40.50;;;;;;4971540;28;20026;-85
2021/07/20 11:36:20;;;;;;;0.95;0.43;;;32.60;40.50;;;;;;4982787;28;20035;-86
2021/07/20 11:38:48;;;;;;;1.52;0.20;;;32.60;40.30;;;;;;4958083;28;20042;-86
2021/07/20 11:41:33;;;;;;;0.50;0.20;;;32.60;40.30;;;;;;4939153;28;20043;-85
2021/07/20 11:44:40;;;;;;;0.35;0.15;;;32.60;40.30;;;;;;5036469;28;20520;-85
2021/07/20 11:47:28;;;;;;;1.42;0.45;;;32.70;40.00;;;;;;5018327;28;20486;-86
2021/07/20 11:50:04;;;;;;;0.75;0.40;;;32.60;39.80;;;;;;5015579;28;20510;-85
2021/07/20 11:52:55;;;;;;;8.30;0.50;;;32.60;39.90;;;;;;5020551;28;20037;-85
2021/07/20 11:55:45;;;;;;;0.00;0.00;;;32.60;39.80;;;;;;5020813;28;20185;-83
2021/07/20 11:58:11;;;;;;;0.55;0.40;;;32.60;39.60;;;;;;5022904;28;20034;-84
2021/07/20 12:01:01;;;;;;;0.47;0.15;;;32.60;39.30;;;;;;5035125;28;20490;-85
2021/07/20 12:03:39;;;;;;;20.88;0.60;;;32.50;39.40;;;;;;5017729;28;20052;-84
2021/07/20 12:06:31;;;;;;;0.35;0.30;;;32.60;39.40;;;;;;5018065;28;20033;-81
2021/07/20 12:09:23;;;;;;;0.10;0.00;;;32.60;39.10;;;;;;5018123;28;20041;-84
2021/07/20 12:11:50;;;;;;;0.10;0.00;;;32.60;38.90;;;;;;5003933;28;20045;-85
2021/07/20 12:14:16;;;;;;;0.63;0.10;;;32.60;38.80;;;;;;5015262;28;20037;-85
2021/07/20 12:16:46;;;;;;;0.40;0.20;;;32.70;38.80;;;;;;5034933;28;20029;-84
2021/07/20 12:19:13;;;;;;;0.30;0.20;;;32.80;38.70;;;;;;5035633;28;20041;-85
2021/07/20 12:21:40;;;;;;;0.15;0.05;;;32.80;38.60;;;;;;5017220;28;20029;-84
2021/07/20 12:24:10;;;;;;;0.25;0.08;;;32.80;38.60;;;;;;5001547;28;20482;-85
2021/07/20 12:26:37;;;;;;;0.45;0.10;;;32.80;38.50;;;;;;5035748;28;20036;-84
2021/07/20 12:29:07;;;;;;;0.90;0.55;;;32.90;38.40;;;;;;4998196;28;20033;-85
2021/07/20 12:31:34;;;;;;;0.20;0.00;;;33.00;38.20;;;;;;5020769;28;20058;-85
2021/07/20 12:34:00;;;;;;;0.10;0.00;;;32.90;38.00;;;;;;5034003;28;20041;-85
2021/07/20 12:36:26;;;;;;;12.05;0.75;;;32.90;37.90;;;;;;5035496;28;20528;-85
2021/07/20 12:39:09;;;;;;;0.20;0.10;;;32.90;37.70;;;;;;5020994;28;20045;-84
2021/07/20 12:41:35;;;;;;;0.20;0.10;;;32.80;37.50;;;;;;5046782;28;20029;-86
2021/07/20 12:44:02;;;;;;;0.35;0.10;;;32.80;37.40;;;;;;5027879;28;20494;-84
2021/07/20 12:46:28;;;;;;;1.25;0.35;;;32.80;37.20;;;;;;5036475;28;20037;-87
2021/07/20 12:48:55;;;;;;;0.55;0.22;;;32.70;37.10;;;;;;5033947;28;20033;-83
2021/07/20 12:51:23;;;;;;;1.23;0.28;;;32.80;37.10;;;;;;5034077;28;20033;-85
2021/07/20 12:53:50;;;;;;;5.57;0.32;;;32.80;36.80;;;;;;5035872;28;20021;-85
2021/07/20 12:56:18;;;;;;;1.77;0.65;;;32.90;36.50;;;;;;5045586;28;20474;-85
2021/07/20 12:58:44;;;;;;;0.47;0.30;;;32.80;36.40;;;;;;5033136;28;20041;-85
2021/07/20 13:01:13;;;;;;;0.47;0.10;;;32.80;36.40;;;;;;5034114;28;20406;-85
2021/07/20 13:03:41;;;;;;;1.17;0.45;;;32.80;36.40;;;;;;5033938;28;20036;-83
2021/07/20 13:06:07;;;;;;;0.15;0.10;;;32.90;36.30;;;;;;5033725;28;20037;-85
2021/07/20 13:08:33;;;;;;;0.10;0.00;;;33.00;36.30;;;;;;5033635;28;20515;-85